createdAt,value
2024-05-09T00:01:14.837Z,10.38
2024-05-09T00:06:17.428Z,11.57
2024-05-09T00:16:24.628Z,10.65
2024-05-09T00:21:27.033Z,8.90
2024-05-09T00:26:32.025Z,10.02
2024-05-09T00:31:34.329Z,9.60
2024-05-09T00:36:36.568Z,11.32
2024-05-09T00:41:41.402Z,8.70
2024-05-09T00:46:43.865Z,11.02
2024-05-09T00:51:46.102Z,9.82
2024-05-09T00:56:51.369Z,11.70
2024-05-09T01:01:54.093Z,10.57
2024-05-09T01:12:01.618Z,9.18
2024-05-09T01:17:04.405Z,10.40
2024-05-09T01:22:06.862Z,9.95
2024-05-09T01:27:11.695Z,9.23
2024-05-09T01:32:14.057Z,10.50
2024-05-09T01:37:16.323Z,11.52
2024-05-09T01:42:21.135Z,11.20
2024-05-09T01:47:23.567Z,10.68
2024-05-09T01:52:25.867Z,10.27
2024-05-09T01:57:31.085Z,9.25
2024-05-09T02:02:34.317Z,9.85
2024-05-09T02:07:36.613Z,11.25
2024-05-09T02:12:41.704Z,10.45
2024-05-09T02:17:44.221Z,11.13
2024-05-09T02:22:46.868Z,11.13
2024-05-09T02:27:51.761Z,10.73
2024-05-09T02:32:54.096Z,9.23
2024-05-09T02:37:56.447Z,10.77
2024-05-09T02:43:01.365Z,9.40
2024-05-09T02:48:04.220Z,11.13
2024-05-09T02:53:06.734Z,10.07
2024-05-09T02:58:12.095Z,9.57
2024-05-09T03:03:15.685Z,10.55
2024-05-09T03:08:18.472Z,9.75
2024-05-09T03:13:23.693Z,9.77
2024-05-09T03:18:25.984Z,10.43
2024-05-09T03:23:28.463Z,9.35
2024-05-09T03:28:33.495Z,10.48
2024-05-09T03:33:36.009Z,9.95
2024-05-09T03:38:38.709Z,9.48
2024-05-09T03:48:46.476Z,11.20
2024-05-09T03:53:49.567Z,15.02
2024-05-09T03:58:55.433Z,13.35
2024-05-09T04:03:58.514Z,12.10
2024-05-09T04:09:00.955Z,14.23
2024-05-09T04:14:06.385Z,12.95
2024-05-09T04:19:08.859Z,13.05
2024-05-09T04:24:11.376Z,12.60
2024-05-09T04:29:16.475Z,12.82
2024-05-09T04:34:19.092Z,14.95
2024-05-09T04:39:21.358Z,11.90
2024-05-09T04:44:26.299Z,13.98
2024-05-09T04:49:28.819Z,12.65
2024-05-09T04:54:36.223Z,12.60
2024-05-09T04:59:41.681Z,14.05
2024-05-09T05:04:45.616Z,16.33
2024-05-09T05:09:48.170Z,15.23
2024-05-09T05:14:53.228Z,14.10
2024-05-09T05:19:55.583Z,14.02
2024-05-09T05:24:58.146Z,16.38
2024-05-09T05:30:04.607Z,15.25
2024-05-09T05:35:08.390Z,15.75
2024-05-09T05:40:14.643Z,18.45
2024-05-09T05:45:22.357Z,19.35
2024-05-09T05:50:32.290Z,18.33
2024-05-09T05:55:39.570Z,17.58
2024-05-09T06:00:45.668Z,17.58
2024-05-09T06:05:47.973Z,17.80
2024-05-09T06:10:50.509Z,16.00
2024-05-09T06:15:55.725Z,16.77
2024-05-09T06:20:58.063Z,15.50
2024-05-09T06:26:00.444Z,14.80
2024-05-09T06:31:05.642Z,13.75
2024-05-09T06:36:08.492Z,15.63
2024-05-09T06:41:10.877Z,13.23
2024-05-09T06:46:15.738Z,14.45
2024-05-09T06:51:18.040Z,14.73
2024-05-09T06:56:20.344Z,14.35
2024-05-09T07:01:25.188Z,15.07
2024-05-09T07:06:27.456Z,15.48
2024-05-09T07:11:29.854Z,13.75
2024-05-09T07:16:35.114Z,15.68
2024-05-09T07:21:37.391Z,13.82
2024-05-09T07:26:39.863Z,13.30
2024-05-09T07:36:47.314Z,14.18
2024-05-09T07:41:49.773Z,14.50
2024-05-09T07:53:29.940Z,12.73
2024-05-09T07:57:38.852Z,14.38
2024-05-09T08:02:43.722Z,14.65
2024-05-09T08:07:46.008Z,15.48
2024-05-09T08:12:48.375Z,15.38
2024-05-09T08:22:55.590Z,13.85
2024-05-09T08:33:03.649Z,14.73
2024-05-09T08:38:07.522Z,16.42
2024-05-09T08:43:12.089Z,14.95
2024-05-09T08:48:19.990Z,13.95
2024-05-09T08:53:22.646Z,13.10
2024-05-09T08:58:26.495Z,12.23
2024-05-09T09:03:33.811Z,11.75
2024-05-09T09:08:39.515Z,11.88
2024-05-09T09:13:41.994Z,11.02
2024-05-09T09:18:47.088Z,10.38
2024-05-09T09:23:49.425Z,8.70
2024-05-09T09:28:52.228Z,8.68
2024-05-09T09:33:57.770Z,8.25
2024-05-09T09:39:00.511Z,7.13
2024-05-09T09:44:04.417Z,5.43
2024-05-09T09:49:10.255Z,5.68
2024-05-09T09:54:14.033Z,4.70
2024-05-09T09:59:16.620Z,4.05
2024-05-09T10:04:21.666Z,2.17
2024-05-09T10:09:24.460Z,2.75
2024-05-09T10:14:26.886Z,2.67
2024-05-09T10:19:33.773Z,2.67
2024-05-09T10:24:49.329Z,2.83
2024-05-09T10:29:52.742Z,2.35
2024-05-09T10:35:07.954Z,2.67
2024-05-09T10:45:19.708Z,3.92
2024-05-09T10:50:28.786Z,2.95
2024-05-09T10:55:34.309Z,1.63
2024-05-09T11:00:36.918Z,2.95
2024-05-09T11:05:43.248Z,1.85
2024-05-09T11:10:46.417Z,1.90
2024-05-09T11:15:49.020Z,2.05
2024-05-09T11:20:55.348Z,2.33
2024-05-09T11:25:58.965Z,2.28
2024-05-09T11:31:08.959Z,3.05
2024-05-09T11:36:15.374Z,2.15
2024-05-09T11:41:18.803Z,1.90
2024-05-09T11:46:21.309Z,1.95
2024-05-09T11:51:26.285Z,1.55
2024-05-09T11:56:28.724Z,2.13
2024-05-09T12:01:31.209Z,2.08
2024-05-09T12:06:36.375Z,1.75
2024-05-09T12:11:38.704Z,1.77
2024-05-09T12:16:41.141Z,2.08
2024-05-09T12:21:46.340Z,1.85
2024-05-09T12:26:48.636Z,2.42
2024-05-09T12:31:51.047Z,2.33
2024-05-09T12:36:56.106Z,2.13
2024-05-09T12:41:58.440Z,2.38
2024-05-09T12:47:00.751Z,1.83
2024-05-09T12:52:06.242Z,2.15
2024-05-09T12:57:08.606Z,2.20
2024-05-09T13:02:11.046Z,1.80
2024-05-09T13:07:16.339Z,2.03
2024-05-09T13:12:19.321Z,1.83
2024-05-09T13:17:22.405Z,1.95
2024-05-09T13:22:27.626Z,1.65
2024-05-09T13:27:29.957Z,1.60
2024-05-09T13:32:32.660Z,2.53
2024-05-09T13:37:37.864Z,2.00
2024-05-09T13:42:40.239Z,2.10
2024-05-09T13:47:42.788Z,1.98
2024-05-09T13:52:47.764Z,2.60
2024-05-09T13:57:50.369Z,2.33
2024-05-09T14:02:52.675Z,1.98
2024-05-09T14:07:58.544Z,1.98
2024-05-09T14:13:01.435Z,2.58
2024-05-09T14:18:04.301Z,2.15
2024-05-09T14:23:09.568Z,2.08
2024-05-09T14:28:13.198Z,1.73
2024-05-09T14:33:16.139Z,1.90
2024-05-09T14:38:21.233Z,2.10
2024-05-09T14:43:23.558Z,2.05
2024-05-09T14:48:26.064Z,1.60
2024-05-09T14:53:30.967Z,2.08
2024-05-09T14:58:33.334Z,1.40
2024-05-09T15:03:35.865Z,1.95
2024-05-09T15:08:40.797Z,2.33
2024-05-09T15:13:43.052Z,2.08
2024-05-09T15:18:45.718Z,2.20
2024-05-09T15:23:50.968Z,2.45
2024-05-09T15:28:53.219Z,2.15
2024-05-09T15:33:55.882Z,2.22
2024-05-09T15:39:01.184Z,1.90
2024-05-09T15:44:03.494Z,1.73
2024-05-09T15:49:05.934Z,2.35
2024-05-09T15:54:11.134Z,1.58
2024-05-09T15:59:13.450Z,1.88
2024-05-09T16:04:15.888Z,2.10
2024-05-09T16:09:21.230Z,2.35
2024-05-09T16:14:23.517Z,2.03
2024-05-09T16:19:26.087Z,1.90
2024-05-09T16:24:31.314Z,2.33
2024-05-09T16:29:33.884Z,2.78
2024-05-09T16:34:36.198Z,2.38
2024-05-09T16:39:41.104Z,2.95
2024-05-09T16:44:43.416Z,2.97
2024-05-09T16:49:45.672Z,2.88
2024-05-09T16:54:51.100Z,2.38
2024-05-09T16:59:53.384Z,2.25
2024-05-09T17:04:55.819Z,3.08
2024-05-09T17:10:00.803Z,3.00
2024-05-09T17:15:03.260Z,2.60
2024-05-09T17:20:10.433Z,2.78
2024-05-09T17:25:20.812Z,2.50
2024-05-09T17:30:28.985Z,2.88
2024-05-09T17:35:37.316Z,3.35
2024-05-09T17:40:42.543Z,3.53
2024-05-09T17:45:44.895Z,3.13
2024-05-09T17:50:47.181Z,2.80
2024-05-09T17:55:52.084Z,3.08
2024-05-09T18:00:54.527Z,3.10
2024-05-09T18:05:57.234Z,2.70
2024-05-09T18:11:02.212Z,2.80
2024-05-09T18:16:05.036Z,6.45
2024-05-09T18:21:07.291Z,2.90
2024-05-09T18:26:13.122Z,2.75
2024-05-09T18:31:15.583Z,3.85
2024-05-09T18:36:18.054Z,2.90
2024-05-09T18:41:23.004Z,3.50
2024-05-09T18:46:25.506Z,3.53
2024-05-09T18:51:27.968Z,4.85
2024-05-09T18:56:33.009Z,3.97
2024-05-09T19:01:35.686Z,4.10
2024-05-09T19:06:38.198Z,5.05
2024-05-09T19:11:43.213Z,5.03
2024-05-09T19:16:45.507Z,4.30
2024-05-09T19:21:48.003Z,5.15
2024-05-09T19:26:53.224Z,4.05
2024-05-09T19:31:56.750Z,5.90
2024-05-09T19:36:59.277Z,3.80
2024-05-09T19:42:04.904Z,4.88
2024-05-09T19:47:07.178Z,4.03
2024-05-09T19:52:09.668Z,5.45
2024-05-09T19:57:14.753Z,5.18
2024-05-09T20:02:17.311Z,5.50
2024-05-09T20:07:19.929Z,7.20
2024-05-09T20:12:25.083Z,6.28
2024-05-09T20:17:27.375Z,6.63
2024-05-09T20:22:29.817Z,7.25
2024-05-09T20:27:34.991Z,5.70
2024-05-09T20:32:37.468Z,7.07
2024-05-09T20:37:39.907Z,6.07
2024-05-09T20:42:44.857Z,6.30
2024-05-09T20:47:47.255Z,6.45
2024-05-09T20:52:49.544Z,6.55
2024-05-09T21:02:56.394Z,5.68
2024-05-09T21:13:04.002Z,7.75
2024-05-09T21:18:06.837Z,7.00
2024-05-09T21:23:09.349Z,6.78
2024-05-09T21:28:14.503Z,7.28
2024-05-09T21:33:17.044Z,7.22
2024-05-09T21:38:19.523Z,6.97
2024-05-09T21:43:24.516Z,7.63
2024-05-09T21:48:26.960Z,8.77
2024-05-09T21:53:29.221Z,8.18
2024-05-09T21:58:34.168Z,7.13
2024-05-09T22:03:36.522Z,7.38
2024-05-09T22:08:38.847Z,7.50
2024-05-09T22:13:43.752Z,9.15
2024-05-09T22:18:46.108Z,9.00
2024-05-09T22:28:53.469Z,8.75
2024-05-09T22:33:55.984Z,7.60
2024-05-09T22:38:58.516Z,8.55
2024-05-09T22:44:03.373Z,7.80
2024-05-09T22:49:05.761Z,7.60
2024-05-09T22:54:08.108Z,7.13
2024-05-09T22:59:13.106Z,8.48
2024-05-09T23:04:15.408Z,7.15
2024-05-09T23:09:17.864Z,7.28
2024-05-09T23:14:22.856Z,7.72
2024-05-09T23:19:25.112Z,7.57
2024-05-09T23:24:27.638Z,9.07
2024-05-09T23:29:32.766Z,8.95
2024-05-09T23:34:35.118Z,7.93
2024-05-09T23:39:37.581Z,8.75
2024-05-09T23:44:42.558Z,7.65
2024-05-09T23:49:44.853Z,7.72
2024-05-09T23:54:47.186Z,7.75
2024-05-09T23:59:52.153Z,6.90
